Flight Track Log - Related Links

Times and Time Zones

All times are in EDT time to prevent confusion due to time zone crossing. See the AMF1026 flight status page for this flight to view local times or setup timezone preferences in your user account.

Time Position Orientation Groundspeed Altitude Reporting Facility
EDT Latitude Longitude Course Direction KTS MPH feet Rate Location/Type
Mon 09:04:43 PM 42.7339 -73.8081 179° South 133 153 900  Level Boston Center
Mon 09:05:02 PM 42.7214 -73.8078 179° South 140 161 1,400 1,671 Climbing Boston Center
Mon 09:06:02 PM 42.7083 -73.8500 247° West 162 186 3,100 1,491 Climbing Boston Center
Mon 09:07:43 PM 42.7264 -73.9211 289° West 157 181 5,400 1,491 Climbing Boston Center
Mon 09:08:43 PM 42.7233 -73.9775 266° West 145 167 7,100 1,500 Climbing Boston Center
Mon 09:09:43 PM 42.6958 -74.0250 232° Southwest 257 296 8,400 1,250 Climbing Boston Center
Mon 09:10:43 PM 42.6700 -74.0750 235° Southwest 212 244 9,600 1,150 Climbing Boston Center
Mon 09:11:43 PM 42.6567 -74.1311 252° West 152 175 10,700 1,050 Climbing Boston Center
Mon 09:12:43 PM 42.6497 -74.1819 259° West 152 175 11,700 1,100 Climbing Boston Center
Mon 09:13:43 PM 42.6361 -74.2464 254° West 163 188 12,900 950 Climbing Boston Center
Mon 09:14:43 PM 42.6269 -74.2997 257° West 163 188 13,600 600 Climbing Boston Center
Mon 09:15:43 PM 42.6217 -74.3672 264° West 163 188 14,100 227 Climbing Boston Center
Mon 09:16:55 PM 42.6097 -74.4572 260° West 189 217 14,100  Level Boston Center
Mon 09:17:55 PM 42.6000 -74.5331 260° West 205 236 14,100 -50 Level Boston Center
Mon 09:18:55 PM 42.5881 -74.6144 259° West 222 255 14,000 -50 Descending Boston Center
Mon 09:19:55 PM 42.5742 -74.6900 256° West 222 255 14,000  Level Boston Center
Mon 09:20:55 PM 42.5597 -74.7742 257° West 222 255 14,000  Level Boston Center
Mon 09:21:55 PM 42.5500 -74.8414 259° West 222 255 14,000  Level Boston Center
Mon 09:22:55 PM 42.5314 -74.9364 255° West 222 255 14,000  Level Boston Center
Mon 09:23:55 PM 42.5172 -75.0147 256° West 222 255 14,000  Level Boston Center
Mon 09:24:55 PM 42.5028 -75.0931 256° West 222 255 14,000  Level Boston Center
Mon 09:25:55 PM 42.4864 -75.1683 243° Southwest 222 255 14,000  Level Boston Center
Mon 09:26:00 PM 42.4710 -75.1777 243° Southwest  Level FlightAware Approximate
Mon 09:28:03 PM 42.4336 -75.3219 245° Southwest 222 255 14,000  Level New York Center
Mon 09:29:03 PM 42.4097 -75.3989 247° West 228 262 14,000  Level New York Center
Mon 09:30:02 PM 42.3839 -75.4728 245° Southwest 228 262 14,000  Level New York Center
Mon 09:32:00 PM 42.3286 -75.6282 245° Southwest  Level FlightAware Approximate
Mon 09:32:01 PM 42.3322 -75.6178 245° Southwest 228 262 14,000  Level New York Center
Mon 09:33:01 PM 42.3083 -75.6944 247° West 228 262 14,000  Level New York Center
Mon 09:34:01 PM 42.2822 -75.7708 245° Southwest 228 262 14,000  Level New York Center
Mon 09:35:03 PM 42.2583 -75.8475 247° West 228 262 14,000  Level New York Center
Mon 09:36:01 PM 42.2322 -75.9211 244° Southwest 228 262 14,000  Level New York Center
Mon 09:37:01 PM 42.2081 -75.9978 247° West 228 262 14,000  Level New York Center
Mon 09:38:02 PM 42.1819 -76.0711 244° Southwest 228 262 14,000  Level New York Center
Mon 09:39:02 PM 42.1556 -76.1472 245° Southwest 228 262 14,000  Level New York Center
Mon 09:40:03 PM 42.1317 -76.2181 246° West 228 262 14,000  Level New York Center
Mon 09:41:01 PM 42.1031 -76.2939 243° Southwest 228 262 14,000  Level New York Center
Mon 09:42:02 PM 42.0767 -76.3672 244° Southwest 228 262 14,000  Level New York Center
Mon 09:43:02 PM 42.0503 -76.4406 244° Southwest 228 262 14,000  Level New York Center
Mon 09:44:03 PM 42.0239 -76.5136 244° Southwest 228 262 14,000  Level New York Center
Mon 09:45:01 PM 41.9975 -76.5867 244° Southwest 228 262 14,000  Level New York Center
Mon 09:46:01 PM 41.9731 -76.6625 247° West 228 262 14,000  Level New York Center
Mon 09:47:01 PM 41.9464 -76.7356 244° Southwest 228 262 14,000  Level New York Center
Mon 09:48:02 PM 41.9197 -76.8083 244° Southwest 228 262 14,000  Level New York Center
Mon 09:49:03 PM 41.8931 -76.8839 245° Southwest 228 262 14,000  Level New York Center
Mon 09:49:34 PM 41.8792 -76.9378 251° West 231 266 14,000 -66 Level Cleveland Center
Mon 09:50:34 PM 41.8544 -77.0144 247° West 231 266 13,900 -50 Descending Cleveland Center
Mon 09:51:34 PM 41.8275 -77.0886 244° Southwest 231 266 13,900 50 Level Cleveland Center
Mon 09:52:34 PM 41.8028 -77.1650 247° West 231 266 14,000  Climbing Cleveland Center
Mon 09:53:34 PM 41.7800 -77.2414 248° West 231 266 13,900  Descending Cleveland Center
Mon 09:54:34 PM 41.7531 -77.3181 245° Southwest 231 266 14,000 50 Climbing Cleveland Center
Mon 09:55:34 PM 41.7281 -77.3917 246° West 226 260 14,000  Level Cleveland Center
Mon 09:56:34 PM 41.7008 -77.4681 245° Southwest 226 260 14,000  Level Cleveland Center
Mon 09:57:34 PM 41.6697 -77.5447 242° Southwest 226 260 14,000  Level Cleveland Center
Mon 09:58:34 PM 41.6464 -77.6153 246° West 226 260 14,000 -50 Level Cleveland Center
Mon 09:59:34 PM 41.6150 -77.6944 242° Southwest 221 254 13,900  Descending Cleveland Center
Mon 10:00:34 PM 41.5897 -77.7678 245° Southwest 221 254 14,000 50 Climbing Cleveland Center
Mon 10:01:34 PM 41.5625 -77.8411 244° Southwest 221 254 14,000  Level Cleveland Center
Mon 10:02:34 PM 41.5372 -77.9172 246° West 221 254 14,000  Level Cleveland Center
Mon 10:03:34 PM 41.5139 -77.9931 248° West 221 254 14,000 -50 Level Cleveland Center
Mon 10:04:34 PM 41.4925 -78.0658 249° West 226 260 13,900  Descending Cleveland Center
Mon 10:05:34 PM 41.4711 -78.1417 249° West 226 260 14,000 50 Climbing Cleveland Center
Mon 10:06:34 PM 41.4478 -78.2200 248° West 226 260 14,000  Level Cleveland Center
Mon 10:07:34 PM 41.4244 -78.2986 248° West 226 260 14,000  Level Cleveland Center
Mon 10:08:34 PM 41.4008 -78.3769 248° West 233 268 14,000 -50 Level Cleveland Center
Mon 10:09:34 PM 41.3775 -78.4525 248° West 233 268 13,900  Descending Cleveland Center
Mon 10:10:34 PM 41.3558 -78.5333 250° West 233 268 14,000 50 Climbing Cleveland Center
Mon 10:11:34 PM 41.3344 -78.6114 250° West 233 268 14,000  Level Cleveland Center
Mon 10:12:34 PM 41.3106 -78.6894 248° West 233 268 14,000  Level Cleveland Center
Mon 10:13:34 PM 41.2869 -78.7675 248° West 233 268 14,000  Level Cleveland Center
Mon 10:14:34 PM 41.2653 -78.8456 250° West 233 268 14,000  Level Cleveland Center
Mon 10:15:34 PM 41.2456 -78.9233 251° West 233 268 14,000  Level Cleveland Center
Mon 10:16:34 PM 41.2175 -79.0014 244° Southwest 227 261 14,000  Level Cleveland Center
Mon 10:17:34 PM 41.1933 -79.0792 248° West 227 261 14,000  Level Cleveland Center
Mon 10:18:34 PM 41.1694 -79.1514 246° West 227 261 14,000  Level Cleveland Center
Mon 10:19:34 PM 41.1453 -79.2292 248° West 227 261 14,000  Level Cleveland Center
Mon 10:20:34 PM 41.1253 -79.3014 250° West 227 261 14,000  Level Cleveland Center
Mon 10:21:34 PM 41.0989 -79.3736 244° Southwest 232 267 14,000 -50 Level Cleveland Center
Mon 10:22:34 PM 41.0747 -79.4456 246° West 232 267 13,900 -50 Descending Cleveland Center
Mon 10:23:34 PM 41.0483 -79.5203 245° Southwest 227 261 13,900 50 Level Cleveland Center
Mon 10:24:34 PM 41.0219 -79.5950 245° Southwest 227 261 14,000 50 Climbing Cleveland Center
Mon 10:25:35 PM 40.9994 -79.6669 248° West 222 255 14,000  Level Cleveland Center
Mon 10:26:34 PM 40.9731 -79.7417 245° Southwest 222 255 14,000  Level Cleveland Center
Mon 10:27:34 PM 40.9464 -79.8161 245° Southwest 222 255 14,000  Level Cleveland Center
Mon 10:28:34 PM 40.9239 -79.8906 248° West 222 255 14,000  Level Cleveland Center
Mon 10:29:34 PM 40.8972 -79.9678 245° Southwest 227 261 14,000  Level Cleveland Center
Mon 10:30:34 PM 40.8725 -80.0422 246° West 227 261 14,000  Level Cleveland Center
Mon 10:31:34 PM 40.8481 -80.1247 249° West 222 255 14,000  Level Cleveland Center
Mon 10:32:34 PM 40.8253 -80.1933 246° West 227 261 14,000  Level Cleveland Center
Mon 10:33:34 PM 40.7942 -80.2594 238° Southwest 227 261 14,000  Level Cleveland Center
Mon 10:34:34 PM 40.7589 -80.3281 236° Southwest 227 261 14,000  Level Cleveland Center
Mon 10:35:34 PM 40.7194 -80.4050 236° Southwest 232 267 14,000  Level Cleveland Center
Mon 10:36:34 PM 40.6842 -80.4736 236° Southwest 232 267 14,000  Level Cleveland Center
Mon 10:37:34 PM 40.6467 -80.5419 234° Southwest 232 267 14,000  Level Cleveland Center
Mon 10:38:34 PM 40.6133 -80.6106 237° Southwest 232 267 14,000  Level Cleveland Center
Mon 10:39:34 PM 40.5819 -80.6622 231° Southwest 221 254 14,000  Level Cleveland Center
Mon 10:40:34 PM 40.5464 -80.7333 237° Southwest 221 254 14,000  Level Cleveland Center
Mon 10:41:34 PM 40.5131 -80.8017 237° Southwest 221 254 14,000  Level Cleveland Center
Mon 10:42:34 PM 40.4794 -80.8725 238° Southwest 221 254 14,000  Level Cleveland Center
Mon 10:43:34 PM 40.4461 -80.9378 236° Southwest 226 260 14,000  Level Cleveland Center
Mon 10:44:34 PM 40.4103 -81.0083 236° Southwest 226 260 14,000  Level Cleveland Center
Mon 10:45:34 PM 40.3747 -81.0764 236° Southwest 231 266 14,000  Level Cleveland Center
Mon 10:46:25 PM 40.3406 -81.1378 234° Southwest 229 264 14,000  Level Indianapolis Center
Mon 10:47:26 PM 40.3039 -81.2083 236° Southwest 230 265 14,000  Level Indianapolis Center
Mon 10:48:27 PM 40.2672 -81.2775 235° Southwest 230 265 14,000  Level Indianapolis Center
Mon 10:49:29 PM 40.2300 -81.3489 236° Southwest 232 267 14,000  Level Indianapolis Center
Mon 10:50:30 PM 40.1931 -81.4175 235° Southwest 231 266 14,000  Level Indianapolis Center
Mon 10:51:31 PM 40.1558 -81.4892 236° Southwest 233 268 14,000  Level Indianapolis Center
Mon 10:52:32 PM 40.1186 -81.5594 235° Southwest 233 268 14,000  Level Indianapolis Center
Mon 10:53:34 PM 40.0825 -81.6317 237° Southwest 235 270 14,000  Level Indianapolis Center
Mon 10:54:35 PM 40.0386 -81.7114 234° Southwest 231 266 14,000  Level Indianapolis Center
Mon 10:55:36 PM 40.0033 -81.7861 238° Southwest 234 269 14,000  Level Indianapolis Center
Mon 10:56:37 PM 39.9733 -81.8644 243° Southwest 238 274 14,000  Level Indianapolis Center
Mon 10:57:38 PM 39.9478 -81.9428 247° West 235 270 14,000  Level Indianapolis Center
Mon 10:58:40 PM 39.9247 -82.0222 249° West 233 268 14,000  Level Indianapolis Center
Mon 10:59:41 PM 39.9008 -82.1019 249° West 234 269 14,000  Level Indianapolis Center
Mon 11:00:42 PM 39.8769 -82.1822 249° West 235 270 14,000  Level Indianapolis Center
Mon 11:01:43 PM 39.8517 -82.2608 247° West 234 269 14,000  Level Indianapolis Center
Mon 11:02:45 PM 39.8258 -82.3417 247° West 238 274 14,000  Level Indianapolis Center
Mon 11:03:46 PM 39.8000 -82.4214 247° West 237 273 14,000  Level Indianapolis Center
Mon 11:04:47 PM 39.7764 -82.5006 249° West 235 270 14,000  Level Indianapolis Center
Mon 11:05:49 PM 39.7511 -82.5814 248° West 237 273 14,000  Level Indianapolis Center
Mon 11:06:50 PM 39.7242 -82.6625 247° West 240 276 14,000  Level Indianapolis Center
Mon 11:07:51 PM 39.6978 -82.7431 247° West 240 276 14,000  Level Indianapolis Center
Mon 11:08:52 PM 39.6708 -82.8239 247° West 241 277 14,000  Level Indianapolis Center
Mon 11:09:54 PM 39.6422 -82.9031 245° Southwest 240 276 14,000  Level Indianapolis Center
Mon 11:10:55 PM 39.6119 -82.9828 244° Southwest 243 280 14,000  Level Indianapolis Center
Mon 11:11:56 PM 39.5817 -83.0625 244° Southwest 243 280 14,000  Level Indianapolis Center
Mon 11:12:57 PM 39.5503 -83.1414 243° Southwest 243 280 14,000 -67 Level Indianapolis Center
Mon 11:13:26 PM 39.5308 -83.1919 244° Southwest 250 288 13,900 -689 Descending Indianapolis Center
Mon 11:13:58 PM 39.5178 -83.2311 247° West 257 296 13,300 -1,304 Descending Indianapolis Center
Mon 11:14:58 PM 39.4836 -83.3269 245° Southwest 270 311 11,900 -1,304 Descending Indianapolis Center
Mon 11:15:53 PM 39.4594 -83.4025 248° West 258 297 10,800 -942 Descending Indianapolis Center
Mon 11:16:59 PM 39.4319 -83.4936 249° West 244 281 10,000 -378 Descending Indianapolis Center
Mon 11:18:00 PM 39.4094 -83.5692 249° West 225 259 10,000  Level Indianapolis Center
Mon 11:19:01 PM 39.3803 -83.6519 246° West 240 276 10,000  Level Indianapolis Center
Mon 11:20:07 PM 39.3522 -83.7344 246° West 242 278 10,000  Level Indianapolis Center
Mon 11:21:08 PM 39.3342 -83.8164 254° West 240 276 10,000  Level Indianapolis Center
Mon 11:22:09 PM 39.3417 -83.9056 276° West 246 283 10,000  Level Indianapolis Center
Mon 11:23:10 PM 39.3361 -83.9919 265° West 242 278 10,000  Level Indianapolis Center
Mon 11:24:12 PM 39.3342 -84.0817 268° West 246 283 10,000  Level Indianapolis Center
Mon 11:25:13 PM 39.3344 -84.1728 270° West 250 288 10,000 -541 Level Indianapolis Center
Mon 11:26:14 PM 39.3250 -84.2594 262° West 252 290 8,900 -1,230 Descending Indianapolis Center
Mon 11:27:15 PM 39.2672 -84.2306 159° South 251 289 7,500 -1,610 Descending Indianapolis Center
Mon 11:28:17 PM 39.2231 -84.1658 131° Southeast 241 277 5,600 -1,220 Descending Indianapolis Center
Mon 11:29:18 PM 39.1739 -84.1281 149° Southeast 217 250 5,000 -344 Descending Indianapolis Center
Mon 11:30:19 PM 39.1106 -84.1283 180° South 235 270 4,900  Descending Indianapolis Center
Mon 11:31:20 PM 39.0703 -84.1956 232° Southwest 238 274 5,000 -49 Climbing Indianapolis Center
Mon 11:32:22 PM 39.0461 -84.2789 250° West 245 282 4,800 -244 Descending Indianapolis Center
Mon 11:33:23 PM 39.0458 -84.3678 270° West 222 255 4,500 -443 Descending Indianapolis Center
Mon 11:34:24 PM 39.0458 -84.4422 270° West 215 247 3,900 -590 Descending Indianapolis Center
Mon 11:35:25 PM 39.0464 -84.4975 271° West 202 232 3,300 -768 Descending Indianapolis Center
Mon 11:37:47 PM 39.0500 -84.6333 272° West 104 120 1,300 -845 Descending Cincinnati TRACON
Mon 11:39:00 PM 39.0333 -84.6667 236° Southwest  Level FlightAware Approximate
Mon 11:46:00 PM 39.0488 -84.6678 236° Southwest  Level Estimated

Login

Don't have an account? Register now (free) for customized features, flight alerts, and more!